createdAt,value
2024-03-26T00:00:42.256Z,50.00
2024-03-26T00:01:42.274Z,50.52
2024-03-26T00:02:42.219Z,50.47
2024-03-26T00:03:42.178Z,50.37
2024-03-26T00:04:42.191Z,50.74
2024-03-26T00:05:42.213Z,49.94
2024-03-26T00:06:42.273Z,50.31
2024-03-26T00:07:42.203Z,50.00
2024-03-26T00:08:42.233Z,50.67
2024-03-26T00:09:42.219Z,50.82
2024-03-26T00:10:42.253Z,51.38
2024-03-26T00:11:42.284Z,50.17
2024-03-26T00:12:42.232Z,50.13
2024-03-26T00:13:42.277Z,50.00
2024-03-26T00:14:42.296Z,49.98
2024-03-26T00:15:42.196Z,50.28
2024-03-26T00:16:42.299Z,50.00
2024-03-26T00:17:42.248Z,51.37
2024-03-26T00:18:42.226Z,51.54
2024-03-26T00:19:42.319Z,51.59
2024-03-26T00:20:42.276Z,52.28
2024-03-26T00:21:42.460Z,52.85
2024-03-26T00:22:42.290Z,52.13
2024-03-26T00:23:42.328Z,51.36
2024-03-26T00:24:42.261Z,55.00
2024-03-26T00:25:42.296Z,56.22
2024-03-26T00:26:42.363Z,55.54
2024-03-26T00:27:42.577Z,55.05
2024-03-26T00:28:44.012Z,53.78
2024-03-26T00:29:42.424Z,53.77
2024-03-26T00:30:42.392Z,53.99
2024-03-26T00:31:42.310Z,54.22
2024-03-26T00:32:42.302Z,54.72
2024-03-26T00:33:42.312Z,55.87
2024-03-26T00:34:42.405Z,57.04
2024-03-26T00:35:42.410Z,57.88
2024-03-26T00:36:42.410Z,60.35
2024-03-26T00:37:42.315Z,71.53
2024-03-26T00:38:42.307Z,83.90
2024-03-26T00:39:42.325Z,85.25
2024-03-26T00:40:42.362Z,79.27
2024-03-26T00:41:42.372Z,74.38
2024-03-26T00:42:42.371Z,71.34
2024-03-26T00:43:42.287Z,71.85
2024-03-26T00:44:42.344Z,75.52
2024-03-26T00:45:42.338Z,77.67
2024-03-26T00:46:42.374Z,85.17
2024-03-26T00:47:42.537Z,92.11
2024-03-26T00:48:42.487Z,100.01
2024-03-26T00:49:42.433Z,105.46
2024-03-26T00:50:42.524Z,111.31
2024-03-26T00:51:42.511Z,107.39
2024-03-26T00:52:42.614Z,111.42
2024-03-26T00:53:44.501Z,115.14
2024-03-26T00:54:42.676Z,118.71
2024-03-26T00:55:42.682Z,122.68
2024-03-26T00:56:42.809Z,128.05
2024-03-26T00:57:42.873Z,136.88
2024-03-26T00:58:42.860Z,136.60
2024-03-26T00:59:42.914Z,138.23
2024-03-26T01:00:42.956Z,135.93
2024-03-26T09:39:52.056Z,50.00
2024-03-26T09:40:52.082Z,50.00
2024-03-26T09:41:52.039Z,50.00
2024-03-26T09:42:52.073Z,50.00
2024-03-26T09:43:52.002Z,50.00
2024-03-26T09:44:58.537Z,49.49
2024-03-26T09:45:53.015Z,35.03
2024-03-26T09:46:52.045Z,8.39
2024-03-26T09:47:52.025Z,0.00
2024-03-26T09:48:52.009Z,0.00
2024-03-26T09:49:52.012Z,0.00
2024-03-26T09:50:52.034Z,0.00
2024-03-26T09:51:52.129Z,17.38
2024-03-26T09:52:52.048Z,34.86
2024-03-26T09:53:52.039Z,50.00
2024-03-26T09:54:52.037Z,50.00
2024-03-26T09:55:52.048Z,50.78
2024-03-26T09:56:52.215Z,50.09
2024-03-26T09:57:52.288Z,49.58
2024-03-26T09:58:52.203Z,50.46
2024-03-26T09:59:52.506Z,50.86
2024-03-26T10:00:52.216Z,50.50
2024-03-26T10:01:52.175Z,50.29
2024-03-26T10:02:52.206Z,44.86
2024-03-26T10:03:52.292Z,49.89
2024-03-26T10:04:52.305Z,50.00
2024-03-26T10:05:52.386Z,52.56
2024-03-26T10:06:52.416Z,50.00
2024-03-26T10:07:52.436Z,52.24
2024-03-26T10:08:52.469Z,78.16
2024-03-26T10:09:52.553Z,83.97
2024-03-26T10:10:52.519Z,86.76
2024-03-26T10:11:52.578Z,80.09
2024-03-26T10:12:52.572Z,75.51
2024-03-26T10:13:52.642Z,86.02
2024-03-26T10:14:52.691Z,91.11
2024-03-26T10:15:52.688Z,87.90
2024-03-26T10:16:52.767Z,80.06
2024-03-26T10:17:52.748Z,91.58
2024-03-26T10:18:52.848Z,86.08
2024-03-26T10:19:52.790Z,81.34
2024-03-26T10:20:52.901Z,71.18
2024-03-26T10:21:53.368Z,71.48
2024-03-26T10:22:52.909Z,65.02
2024-03-26T10:23:52.964Z,69.76
2024-03-26T10:24:53.021Z,76.89
2024-03-26T10:25:53.047Z,82.00
2024-03-26T10:26:53.111Z,82.44
2024-03-26T10:27:53.122Z,72.39
2024-03-26T10:28:53.153Z,62.45
2024-03-26T10:29:53.172Z,68.57
